createdAt,value
2019-03-27T00:01:49.500Z,74.60
2019-03-27T00:04:35.356Z,74.50
2019-03-27T00:07:21.344Z,74.60
2019-03-27T00:10:07.589Z,74.60
2019-03-27T00:12:53.648Z,74.60
2019-03-27T00:15:38.937Z,74.60
2019-03-27T00:18:24.848Z,74.40
2019-03-27T00:21:10.844Z,74.60
2019-03-27T00:23:56.750Z,74.50
2019-03-27T00:26:42.649Z,74.60
2019-03-27T00:29:28.689Z,74.60
2019-03-27T00:32:14.506Z,74.70
2019-03-27T00:35:00.442Z,74.60
2019-03-27T00:37:45.828Z,74.80
2019-03-27T00:40:31.820Z,74.80
2019-03-27T00:43:17.264Z,74.80
2019-03-27T00:46:03.268Z,74.70
2019-03-27T00:48:49.170Z,74.70
2019-03-27T00:51:35.104Z,74.70
2019-03-27T00:54:21.052Z,74.70
2019-03-27T00:57:06.985Z,74.80
2019-03-27T00:59:52.796Z,74.70
2019-03-27T01:02:38.136Z,74.70
2019-03-27T01:05:24.272Z,74.90
2019-03-27T01:08:10.052Z,74.80
2019-03-27T01:10:56.032Z,74.80
2019-03-27T01:13:43.388Z,74.80
2019-03-27T01:16:29.589Z,74.90
2019-03-27T01:19:14.941Z,74.80
2019-03-27T01:22:00.824Z,74.80
2019-03-27T01:24:46.768Z,74.80
2019-03-27T01:27:35.535Z,74.80
2019-03-27T01:30:20.779Z,75.00
2019-03-27T01:33:06.728Z,75.00
2019-03-27T01:35:53.009Z,74.90
2019-03-27T01:38:38.880Z,75.00
2019-03-27T01:41:24.794Z,75.00
2019-03-27T01:44:10.629Z,75.00
2019-03-27T01:46:56.519Z,74.90
2019-03-27T01:49:41.888Z,74.90
2019-03-27T01:52:29.196Z,74.90
2019-03-27T01:55:15.317Z,74.80
2019-03-27T01:58:00.811Z,74.80
2019-03-27T02:00:46.703Z,75.00
2019-03-27T02:03:32.605Z,75.00
2019-03-27T02:06:18.494Z,75.00
2019-03-27T02:09:04.511Z,75.10
2019-03-27T02:11:50.265Z,75.00
2019-03-27T02:14:36.157Z,75.00
2019-03-27T02:17:21.987Z,74.90
2019-03-27T02:20:07.961Z,74.90
2019-03-27T02:22:53.657Z,74.90
2019-03-27T02:25:39.582Z,74.90
2019-03-27T02:28:25.509Z,74.80
2019-03-27T02:31:11.219Z,74.80
2019-03-27T02:33:57.222Z,74.90
2019-03-27T02:36:43.085Z,74.90
2019-03-27T02:39:28.818Z,74.90
2019-03-27T02:42:14.299Z,74.90
2019-03-27T02:45:00.501Z,74.80
2019-03-27T02:47:46.612Z,74.80
2019-03-27T02:50:32.381Z,74.90
2019-03-27T02:53:18.176Z,74.70
2019-03-27T02:56:03.588Z,74.80
2019-03-27T02:58:49.437Z,74.90
2019-03-27T03:01:35.413Z,74.80
2019-03-27T03:04:21.225Z,74.90
2019-03-27T03:07:07.132Z,74.90
2019-03-27T03:09:52.514Z,74.90
2019-03-27T03:12:38.574Z,74.90
2019-03-27T03:15:24.856Z,75.00
2019-03-27T03:18:10.886Z,74.90
2019-03-27T03:20:56.685Z,75.00
2019-03-27T03:23:42.661Z,75.10
2019-03-27T03:26:28.646Z,75.80
2019-03-27T03:29:14.490Z,75.20
2019-03-27T03:32:00.422Z,75.10
2019-03-27T03:34:46.376Z,75.10
2019-03-27T03:37:32.272Z,75.00
2019-03-27T03:40:18.058Z,74.90
2019-03-27T03:43:23.816Z,75.00
2019-03-27T03:46:11.977Z,75.00
2019-03-27T03:48:58.107Z,75.00
2019-03-27T03:51:46.104Z,75.00
2019-03-27T03:54:35.003Z,75.00
2019-03-27T03:57:21.679Z,75.10
2019-03-27T04:00:07.933Z,75.10
2019-03-27T04:02:53.921Z,75.10
2019-03-27T04:05:39.759Z,74.90
2019-03-27T04:08:25.619Z,75.00
2019-03-27T04:11:11.909Z,75.10
2019-03-27T04:13:57.742Z,74.90
2019-03-27T04:16:43.486Z,75.00
2019-03-27T04:19:29.657Z,74.90
2019-03-27T04:22:21.732Z,75.10
2019-03-27T04:25:07.875Z,75.00
2019-03-27T04:27:53.493Z,74.80
2019-03-27T04:30:39.327Z,74.80
2019-03-27T04:33:25.172Z,74.90
2019-03-27T04:36:10.957Z,74.90
2019-03-27T04:38:56.350Z,74.90
2019-03-27T04:41:42.244Z,75.70
2019-03-27T04:44:28.136Z,74.90
2019-03-27T04:47:13.967Z,74.90
2019-03-27T04:49:59.916Z,75.10
2019-03-27T04:52:45.336Z,75.00
2019-03-27T04:55:31.232Z,75.20
2019-03-27T04:58:17.226Z,75.30
2019-03-27T05:01:03.150Z,75.80
2019-03-27T05:03:49.263Z,75.10
2019-03-27T05:06:35.336Z,75.20
2019-03-27T05:09:21.017Z,75.90
2019-03-27T05:12:06.945Z,75.10
2019-03-27T05:14:52.409Z,75.10
2019-03-27T05:17:45.746Z,75.20
2019-03-27T05:20:28.702Z,75.10
2019-03-27T05:23:14.118Z,75.10
2019-03-27T05:26:00.007Z,75.30
2019-03-27T05:28:46.789Z,75.30
2019-03-27T05:31:32.848Z,75.10
2019-03-27T05:34:18.769Z,75.10
2019-03-27T05:37:04.138Z,75.10
2019-03-27T05:39:50.041Z,75.00
2019-03-27T05:42:36.396Z,75.00
2019-03-27T05:45:21.831Z,75.00
2019-03-27T05:48:07.725Z,75.00
2019-03-27T05:50:53.508Z,75.10
2019-03-27T05:53:38.892Z,75.20
2019-03-27T05:56:24.910Z,75.10
2019-03-27T05:59:10.753Z,75.20
2019-03-27T06:01:56.562Z,75.10
2019-03-27T06:04:42.444Z,75.20
2019-03-27T06:07:28.537Z,75.30
2019-03-27T06:10:16.361Z,75.30
2019-03-27T06:13:02.248Z,75.30
2019-03-27T06:15:52.603Z,75.10
2019-03-27T06:18:38.468Z,75.10
2019-03-27T06:21:24.266Z,75.20
2019-03-27T06:24:10.345Z,75.30
2019-03-27T06:26:56.295Z,75.30
2019-03-27T06:29:42.072Z,75.40
2019-03-27T06:32:28.285Z,75.60
2019-03-27T06:35:14.161Z,75.70
2019-03-27T06:38:00.029Z,75.50
2019-03-27T06:40:46.401Z,75.70
2019-03-27T06:43:32.197Z,75.70
2019-03-27T06:46:18.144Z,75.80
2019-03-27T06:49:04.015Z,75.70
2019-03-27T06:51:49.800Z,75.90
2019-03-27T06:54:35.257Z,75.90
2019-03-27T06:57:21.339Z,76.10
2019-03-27T07:00:07.977Z,76.20
2019-03-27T07:02:54.098Z,76.50
2019-03-27T07:05:39.914Z,76.80
2019-03-27T07:08:25.318Z,76.90
2019-03-27T07:11:11.161Z,78.70
2019-03-27T07:13:57.097Z,78.60
2019-03-27T07:16:42.817Z,78.90
2019-03-27T07:19:28.882Z,79.20
2019-03-27T07:22:14.761Z,78.70
2019-03-27T07:25:00.629Z,78.30
2019-03-27T07:27:46.548Z,78.40
2019-03-27T07:30:32.536Z,78.40
2019-03-27T07:33:18.424Z,78.60
2019-03-27T07:36:04.198Z,78.30
2019-03-27T07:38:50.141Z,78.20
2019-03-27T07:41:35.936Z,77.50
2019-03-27T07:44:21.356Z,77.10
2019-03-27T07:47:26.725Z,77.00
2019-03-27T07:50:12.711Z,76.60
2019-03-27T07:52:58.526Z,76.00
2019-03-27T07:55:44.407Z,76.20
2019-03-27T07:58:30.175Z,76.10
2019-03-27T08:01:16.217Z,76.20
2019-03-27T08:04:02.079Z,76.00
2019-03-27T08:06:47.918Z,75.80
2019-03-27T08:09:33.739Z,75.50
2019-03-27T08:12:19.497Z,75.80
2019-03-27T08:15:05.557Z,75.20
2019-03-27T08:17:53.731Z,74.40
2019-03-27T08:20:39.790Z,74.80
2019-03-27T08:23:25.101Z,74.70
2019-03-27T08:26:11.071Z,74.00
2019-03-27T08:28:57.159Z,73.30
2019-03-27T08:31:43.465Z,74.00
2019-03-27T08:34:28.775Z,73.70
2019-03-27T08:37:15.006Z,72.70
2019-03-27T08:40:00.746Z,73.20
2019-03-27T08:42:46.647Z,71.20
2019-03-27T08:45:32.066Z,71.00
2019-03-27T08:48:18.270Z,70.00
2019-03-27T08:51:04.432Z,68.90
2019-03-27T08:53:50.346Z,69.40
2019-03-27T08:56:36.131Z,68.40
2019-03-27T08:59:22.058Z,69.00
2019-03-27T09:02:07.845Z,67.10
2019-03-27T09:04:53.703Z,67.60
2019-03-27T09:07:39.762Z,66.80
2019-03-27T09:10:25.809Z,66.30
2019-03-27T09:13:11.527Z,66.00
2019-03-27T09:15:57.487Z,66.10
2019-03-27T09:18:43.420Z,66.10
2019-03-27T09:21:28.997Z,64.50
2019-03-27T09:24:14.839Z,64.20
2019-03-27T09:27:00.703Z,64.70
2019-03-27T09:29:46.586Z,62.40
2019-03-27T09:32:32.468Z,63.80
2019-03-27T09:35:18.356Z,62.30
2019-03-27T09:38:04.108Z,61.90
2019-03-27T09:40:50.120Z,61.80
2019-03-27T09:43:36.485Z,62.00
2019-03-27T09:46:22.378Z,62.40
2019-03-27T09:49:08.303Z,61.70
2019-03-27T09:51:54.188Z,62.40
2019-03-27T09:54:40.100Z,61.90
2019-03-27T09:57:26.358Z,60.50
2019-03-27T10:00:12.277Z,60.30
2019-03-27T10:02:58.566Z,61.00
2019-03-27T10:05:43.954Z,60.00
2019-03-27T10:08:29.908Z,58.50
2019-03-27T10:11:15.745Z,61.60
2019-03-27T10:14:01.503Z,62.50
2019-03-27T10:16:47.524Z,59.70
2019-03-27T10:19:32.810Z,61.60
2019-03-27T10:22:18.675Z,59.70
2019-03-27T10:25:05.514Z,63.70
2019-03-27T10:27:51.539Z,60.60
2019-03-27T10:30:37.819Z,60.90
2019-03-27T10:33:23.663Z,60.50
2019-03-27T10:36:09.299Z,61.40
2019-03-27T10:38:55.415Z,61.00
2019-03-27T10:41:41.835Z,60.50
2019-03-27T10:44:27.115Z,60.30
2019-03-27T10:47:13.105Z,59.80
2019-03-27T10:49:59.219Z,60.20
2019-03-27T10:52:45.034Z,58.80
2019-03-27T10:55:34.338Z,60.30
2019-03-27T10:58:19.222Z,59.40
2019-03-27T11:01:07.206Z,58.40
2019-03-27T11:03:52.786Z,57.80
2019-03-27T11:06:38.350Z,59.60
2019-03-27T11:09:24.153Z,58.10
2019-03-27T11:12:10.265Z,58.10
2019-03-27T11:14:56.229Z,58.10
2019-03-27T11:17:42.583Z,58.40
2019-03-27T11:20:31.379Z,57.60
2019-03-27T11:23:15.959Z,58.10
2019-03-27T11:26:01.237Z,58.80
2019-03-27T11:28:47.377Z,56.90
2019-03-27T11:31:34.692Z,58.40
2019-03-27T11:34:20.725Z,57.30
2019-03-27T11:37:06.009Z,57.10
2019-03-27T11:39:52.034Z,57.10
2019-03-27T11:42:37.446Z,57.50
2019-03-27T11:45:23.358Z,58.80
2019-03-27T11:48:09.190Z,58.40
2019-03-27T11:50:54.531Z,58.00
2019-03-27T11:53:40.526Z,55.80
2019-03-27T11:56:26.445Z,55.70
2019-03-27T11:59:12.351Z,57.80
2019-03-27T12:01:57.555Z,53.20
2019-03-27T12:04:43.768Z,53.60
2019-03-27T12:07:29.459Z,54.20
2019-03-27T12:10:14.857Z,54.60
2019-03-27T12:13:00.717Z,55.50
2019-03-27T12:15:46.010Z,50.70
2019-03-27T12:18:32.380Z,51.40
2019-03-27T12:21:18.496Z,53.40
2019-03-27T12:24:03.712Z,54.80
2019-03-27T12:26:49.672Z,52.80
2019-03-27T12:29:35.662Z,53.90
2019-03-27T12:32:24.885Z,54.40
2019-03-27T12:35:09.413Z,54.00
2019-03-27T12:37:54.627Z,53.30
2019-03-27T12:40:40.751Z,53.50
2019-03-27T12:43:26.602Z,53.90
2019-03-27T12:46:11.841Z,54.30
2019-03-27T12:48:57.959Z,53.90
2019-03-27T12:51:43.010Z,53.80
2019-03-27T12:54:29.201Z,52.80
2019-03-27T12:57:14.390Z,53.70
2019-03-27T13:00:00.566Z,52.80
2019-03-27T13:02:46.848Z,53.70
2019-03-27T13:05:32.637Z,53.80
2019-03-27T13:08:18.661Z,55.40
2019-03-27T13:11:04.080Z,53.40
2019-03-27T13:13:50.015Z,53.70
2019-03-27T13:16:36.038Z,55.70
2019-03-27T13:19:21.337Z,55.00
2019-03-27T13:22:07.753Z,54.70
2019-03-27T13:24:53.955Z,56.20
2019-03-27T13:27:39.757Z,56.70
2019-03-27T13:30:25.879Z,57.70
2019-03-27T13:33:11.116Z,57.80
2019-03-27T13:35:59.478Z,57.20
2019-03-27T13:38:45.534Z,57.20
2019-03-27T13:41:31.400Z,57.20
2019-03-27T13:44:16.739Z,57.60
2019-03-27T13:47:02.705Z,57.90
2019-03-27T13:49:48.951Z,52.40
2019-03-27T13:52:34.352Z,51.20
2019-03-27T13:55:20.248Z,54.10
2019-03-27T13:58:06.056Z,54.40
2019-03-27T14:00:51.643Z,56.10
2019-03-27T14:03:37.250Z,56.30
2019-03-27T14:06:22.642Z,57.00
2019-03-27T14:09:08.519Z,57.40
2019-03-27T14:11:54.498Z,58.20
2019-03-27T14:14:50.093Z,58.40
2019-03-27T14:17:27.809Z,58.90
2019-03-27T14:20:13.742Z,58.90
2019-03-27T14:22:59.506Z,59.60
2019-03-27T14:25:45.456Z,59.60
2019-03-27T14:28:31.761Z,60.20
2019-03-27T14:31:17.912Z,60.30
2019-03-27T14:34:03.622Z,61.30
2019-03-27T14:36:49.635Z,61.30
2019-03-27T14:39:35.883Z,60.00
2019-03-27T14:42:21.877Z,59.90
2019-03-27T14:45:07.844Z,60.00
2019-03-27T14:47:53.628Z,59.90
2019-03-27T14:50:39.007Z,61.40
2019-03-27T14:53:24.929Z,60.70
2019-03-27T14:56:11.050Z,60.80
2019-03-27T14:58:56.279Z,61.90
2019-03-27T15:01:42.144Z,60.60
2019-03-27T15:04:27.523Z,60.80
2019-03-27T15:07:13.571Z,61.20
2019-03-27T15:09:59.855Z,60.60
2019-03-27T15:12:46.026Z,61.40
2019-03-27T15:15:31.242Z,61.10
2019-03-27T15:18:17.172Z,61.40
2019-03-27T15:21:05.156Z,62.30
2019-03-27T15:23:50.921Z,61.90
2019-03-27T15:26:36.811Z,63.10
2019-03-27T15:29:22.719Z,62.60
2019-03-27T15:32:08.922Z,62.80
2019-03-27T15:34:54.665Z,61.70
2019-03-27T15:37:40.845Z,61.60
2019-03-27T15:40:41.112Z,61.70
2019-03-27T15:43:26.992Z,62.80
2019-03-27T15:46:12.480Z,62.30
2019-03-27T15:48:58.628Z,62.50
2019-03-27T15:51:45.001Z,63.30
2019-03-27T15:54:31.395Z,64.00
2019-03-27T15:57:17.977Z,63.90
2019-03-27T16:00:04.586Z,65.20
2019-03-27T16:02:50.652Z,64.20
2019-03-27T16:05:35.994Z,63.90
2019-03-27T16:08:21.835Z,64.40
2019-03-27T16:11:07.778Z,64.10
2019-03-27T16:13:53.871Z,64.30
2019-03-27T16:16:40.186Z,65.30
2019-03-27T16:19:26.634Z,65.30
2019-03-27T16:22:12.730Z,66.10
2019-03-27T16:24:58.523Z,65.10
2019-03-27T16:27:43.898Z,64.90
2019-03-27T16:30:29.780Z,65.10
2019-03-27T16:33:15.162Z,65.40
2019-03-27T16:36:01.012Z,65.70
2019-03-27T16:38:47.045Z,65.70
2019-03-27T16:41:33.397Z,66.00
2019-03-27T16:44:19.173Z,65.40
2019-03-27T16:47:04.839Z,66.20
2019-03-27T16:49:50.609Z,66.60
2019-03-27T16:52:35.902Z,66.60
2019-03-27T16:55:22.166Z,67.30
2019-03-27T16:58:08.406Z,66.90
2019-03-27T17:00:54.169Z,67.40
2019-03-27T17:03:40.095Z,66.80
2019-03-27T17:06:25.955Z,66.60
2019-03-27T17:09:13.488Z,66.80
2019-03-27T17:11:59.450Z,67.60
2019-03-27T17:14:45.612Z,67.40
2019-03-27T17:17:31.566Z,67.90
2019-03-27T17:20:17.541Z,68.30
2019-03-27T17:23:17.060Z,67.30
2019-03-27T17:25:51.532Z,68.10
2019-03-27T17:28:37.790Z,68.30
2019-03-27T17:31:23.724Z,68.20
2019-03-27T17:34:09.621Z,68.50
2019-03-27T17:36:55.562Z,68.40
2019-03-27T17:39:41.467Z,68.40
2019-03-27T17:42:27.483Z,68.90
2019-03-27T17:45:13.784Z,68.60
2019-03-27T17:48:02.523Z,68.70
2019-03-27T17:50:48.685Z,69.30
2019-03-27T17:53:34.619Z,68.60
2019-03-27T17:56:20.623Z,68.50
2019-03-27T17:59:06.713Z,68.50
2019-03-27T18:01:52.670Z,68.70
2019-03-27T18:04:38.937Z,68.40
2019-03-27T18:07:24.705Z,68.40
2019-03-27T18:10:10.552Z,68.50
2019-03-27T18:12:56.721Z,68.60
2019-03-27T18:15:42.836Z,68.20
2019-03-27T18:18:28.815Z,68.40
2019-03-27T18:21:14.677Z,68.60
2019-03-27T18:24:00.456Z,68.70
2019-03-27T18:26:46.308Z,68.50
2019-03-27T18:29:32.283Z,68.50
2019-03-27T18:32:18.253Z,68.70
2019-03-27T18:35:04.507Z,68.90
2019-03-27T18:37:50.738Z,68.80
2019-03-27T18:40:37.097Z,68.90
2019-03-27T18:43:22.968Z,68.90
2019-03-27T18:46:08.714Z,69.10
2019-03-27T18:48:54.778Z,69.30
2019-03-27T18:51:40.736Z,69.30
2019-03-27T18:54:26.095Z,69.50
2019-03-27T18:57:12.217Z,69.60
2019-03-27T19:00:01.008Z,69.70
2019-03-27T19:02:46.684Z,67.70
2019-03-27T19:05:32.111Z,69.00
2019-03-27T19:08:19.031Z,69.70
2019-03-27T19:11:05.057Z,70.10
2019-03-27T19:13:50.774Z,70.60
2019-03-27T19:16:36.626Z,70.80
2019-03-27T19:19:22.527Z,71.10
2019-03-27T19:22:08.468Z,71.20
2019-03-27T19:24:54.265Z,72.00
2019-03-27T19:27:39.737Z,71.60
2019-03-27T19:30:25.702Z,71.60
2019-03-27T19:33:11.642Z,71.90
2019-03-27T19:35:57.582Z,71.80
2019-03-27T19:38:43.376Z,71.90
2019-03-27T19:41:32.386Z,72.00
2019-03-27T19:44:18.241Z,72.00
2019-03-27T19:47:03.738Z,72.20
2019-03-27T19:49:49.751Z,72.30
2019-03-27T19:52:35.653Z,72.50
2019-03-27T19:55:21.489Z,72.60
2019-03-27T19:58:07.407Z,72.60
2019-03-27T20:00:53.215Z,72.60
2019-03-27T20:03:39.367Z,72.80
2019-03-27T20:06:27.555Z,72.80
2019-03-27T20:09:14.194Z,72.90
2019-03-27T20:12:00.354Z,73.00
2019-03-27T20:14:46.857Z,73.10
2019-03-27T20:17:34.251Z,73.00
2019-03-27T20:20:20.440Z,73.00
2019-03-27T20:23:14.690Z,73.10
2019-03-27T20:25:58.201Z,73.20
2019-03-27T20:28:44.179Z,73.30
2019-03-27T20:31:29.551Z,73.30
2019-03-27T20:34:15.673Z,73.50
2019-03-27T20:37:02.081Z,73.40
2019-03-27T20:40:03.393Z,73.60
2019-03-27T20:42:58.352Z,73.80
2019-03-27T20:45:44.364Z,73.90
2019-03-27T20:48:31.862Z,73.90
2019-03-27T20:51:18.749Z,74.00
2019-03-27T20:54:04.663Z,73.90
2019-03-27T20:56:50.592Z,74.50
2019-03-27T20:59:36.705Z,73.80
2019-03-27T21:02:22.532Z,74.00
2019-03-27T21:05:08.345Z,73.90
2019-03-27T21:07:54.843Z,74.00
2019-03-27T21:10:40.129Z,74.00
2019-03-27T21:13:26.078Z,73.30
2019-03-27T21:16:12.485Z,74.10
2019-03-27T21:18:58.424Z,74.00
2019-03-27T21:21:43.870Z,74.30
2019-03-27T21:24:29.731Z,74.30
2019-03-27T21:27:16.944Z,74.10
2019-03-27T21:30:03.879Z,74.20
2019-03-27T21:32:49.905Z,74.40
2019-03-27T21:35:35.952Z,74.30
2019-03-27T21:38:22.090Z,74.30
2019-03-27T21:41:08.233Z,74.30
2019-03-27T21:43:54.948Z,74.40
2019-03-27T21:46:41.153Z,74.50
2019-03-27T21:49:27.412Z,74.60
2019-03-27T21:52:18.826Z,74.50
2019-03-27T21:55:06.407Z,74.40
2019-03-27T21:57:53.454Z,74.30
2019-03-27T22:00:39.789Z,74.60
2019-03-27T22:03:28.220Z,74.60
2019-03-27T22:06:16.066Z,74.50
2019-03-27T22:09:02.128Z,74.80
2019-03-27T22:11:47.511Z,74.60
2019-03-27T22:14:33.213Z,74.60
2019-03-27T22:17:19.176Z,74.70
2019-03-27T22:20:06.075Z,74.70
2019-03-27T22:22:52.113Z,74.70
2019-03-27T22:25:38.398Z,74.60
2019-03-27T22:28:23.958Z,74.60
2019-03-27T22:31:10.733Z,74.80
2019-03-27T22:33:56.679Z,74.80
2019-03-27T22:36:43.226Z,74.80
2019-03-27T22:39:29.477Z,74.70
2019-03-27T22:42:15.830Z,74.70
2019-03-27T22:45:01.697Z,74.80
2019-03-27T22:47:48.060Z,74.80
2019-03-27T22:50:33.432Z,74.80
2019-03-27T22:53:19.364Z,74.80
2019-03-27T22:56:05.392Z,74.80
2019-03-27T22:58:51.788Z,74.80
2019-03-27T23:01:44.799Z,74.70
2019-03-27T23:04:30.870Z,74.70
2019-03-27T23:07:16.699Z,74.80
2019-03-27T23:10:03.375Z,74.90
2019-03-27T23:12:49.499Z,74.90
2019-03-27T23:15:35.598Z,74.90
2019-03-27T23:18:21.441Z,74.90
2019-03-27T23:21:07.532Z,74.90
2019-03-27T23:23:56.603Z,74.90
2019-03-27T23:26:42.903Z,74.90
2019-03-27T23:29:28.781Z,74.90
2019-03-27T23:32:14.209Z,75.00
2019-03-27T23:35:00.029Z,75.00
2019-03-27T23:37:45.975Z,75.00
2019-03-27T23:40:32.053Z,75.10
2019-03-27T23:43:18.217Z,74.90
2019-03-27T23:46:06.152Z,75.00
2019-03-27T23:48:52.484Z,75.00
2019-03-27T23:51:38.656Z,75.10
2019-03-27T23:54:24.523Z,75.00
2019-03-27T23:57:10.016Z,75.00
2019-03-27T23:59:55.946Z,75.10
